Hovedside
METAR-TAF:

METAR-TAF

Lufthavner :

Tacoma Narrows Airport

Tacoma, Washington, USA

breddegrad: 47-16-03N, lengdegrad: 122-34-34W, høyde over havet: 96 m

Gjeldene værobservasjon

Denne rapporten ble laget for 25 minutter siden, klokken 17:53 UTC
Vind 7 kt fra Nord-nordøst, skiftende mellom Nord og Øst
Temperatur 12°C
Luftfuktighet 54%
Trykk 1022 hPa
Sikt: 16.1 km
Skyfri himmel

METAR: KTIW 091753Z 03007KT 010V080 10SM CLR 12/03 A3017 RMK AO2 SLP216 T01170028 10128 20039 58008

Tid: 11:18 (18:18 UTC)


TAF: fraværende

Værobservasjoner og værvarsel for over 4000 flyplasser (METAR- og TAF-rapporter).

Tilgjengelige stasjoner er representert av de røde og gule prikkene på kartet.

Hold musepekeren over prikken for å se navnet på stasjonen.

Klikk så for å se værobservasjoner og -varsler.

For å forandre kartet kan du klikke på den grønne knappen med svart kryss for å zoome inn, på den grønne knappen med strek for å zoome ut, eller på de grønne pilene for å se tilstøtende kart.


METAR-TAF: